sensor_id;sensor_type;location;lat;lon;timestamp;pressure;altitude;pressure_sealevel;temperature
79148;BMP280;68562;51.600;6.524;2023-07-31T00:00:00;1009.5;;;18.5
79148;BMP280;68562;51.600;6.524;2023-07-31T00:05:00;1009.4;;;18.3
79148;BMP280;68562;51.600;6.524;2023-07-31T00:10:00;1009.4;;;18.2
79148;BMP280;68562;51.600;6.524;2023-07-31T00:15:00;1009.3;;;18.2
79148;BMP280;68562;51.600;6.524;2023-07-31T00:20:00;1009.2;;;18.3
79148;BMP280;68562;51.600;6.524;2023-07-31T00:25:00;1009.3;;;18.4
79148;BMP280;68562;51.600;6.524;2023-07-31T00:30:00;1009.2;;;18.4
79148;BMP280;68562;51.600;6.524;2023-07-31T00:35:00;1009.2;;;18.3
79148;BMP280;68562;51.600;6.524;2023-07-31T00:40:00;1009.2;;;18.3
79148;BMP280;68562;51.600;6.524;2023-07-31T00:45:00;1009.3;;;18.5
79148;BMP280;68562;51.600;6.524;2023-07-31T00:50:00;1009.2;;;18.4
79148;BMP280;68562;51.600;6.524;2023-07-31T00:55:00;1009.2;;;18.5
79148;BMP280;68562;51.600;6.524;2023-07-31T01:00:00;1009.2;;;18.5
79148;BMP280;68562;51.600;6.524;2023-07-31T01:05:01;1009.1;;;18.5
79148;BMP280;68562;51.600;6.524;2023-07-31T01:10:05;1009.1;;;18.5
79148;BMP280;68562;51.600;6.524;2023-07-31T01:15:03;1009.1;;;18.5
79148;BMP280;68562;51.600;6.524;2023-07-31T01:20:02;1009.1;;;18.6
79148;BMP280;68562;51.600;6.524;2023-07-31T01:25:09;1009.1;;;18.5
79148;BMP280;68562;51.600;6.524;2023-07-31T01:30:03;1009.0;;;18.5
79148;BMP280;68562;51.600;6.524;2023-07-31T01:35:00;1009.0;;;18.5
79148;BMP280;68562;51.600;6.524;2023-07-31T01:40:00;1009.0;;;18.5
79148;BMP280;68562;51.600;6.524;2023-07-31T01:45:00;1009.0;;;18.6
79148;BMP280;68562;51.600;6.524;2023-07-31T01:50:00;1009.0;;;18.6
79148;BMP280;68562;51.600;6.524;2023-07-31T01:55:00;1009.0;;;18.6
79148;BMP280;68562;51.600;6.524;2023-07-31T02:00:00;1008.9;;;18.5
79148;BMP280;68562;51.600;6.524;2023-07-31T02:05:00;1008.9;;;18.6
79148;BMP280;68562;51.600;6.524;2023-07-31T02:10:00;1008.9;;;18.6
79148;BMP280;68562;51.600;6.524;2023-07-31T02:15:00;1008.9;;;18.6
79148;BMP280;68562;51.600;6.524;2023-07-31T02:20:00;1008.8;;;18.5
79148;BMP280;68562;51.600;6.524;2023-07-31T02:25:00;1008.8;;;18.5
79148;BMP280;68562;51.600;6.524;2023-07-31T02:30:00;1008.8;;;18.5
79148;BMP280;68562;51.600;6.524;2023-07-31T02:35:00;1008.8;;;18.5
79148;BMP280;68562;51.600;6.524;2023-07-31T02:40:00;1008.8;;;18.5
79148;BMP280;68562;51.600;6.524;2023-07-31T02:45:00;1008.7;;;18.4
79148;BMP280;68562;51.600;6.524;2023-07-31T02:50:00;1008.7;;;18.4
79148;BMP280;68562;51.600;6.524;2023-07-31T02:55:00;1008.7;;;18.3
79148;BMP280;68562;51.600;6.524;2023-07-31T03:00:00;1008.7;;;18.4
79148;BMP280;68562;51.600;6.524;2023-07-31T03:05:00;1008.7;;;18.4
79148;BMP280;68562;51.600;6.524;2023-07-31T03:10:00;1008.6;;;18.4
79148;BMP280;68562;51.600;6.524;2023-07-31T03:15:00;1008.6;;;18.4
79148;BMP280;68562;51.600;6.524;2023-07-31T03:20:00;1008.5;;;18.5
79148;BMP280;68562;51.600;6.524;2023-07-31T03:25:00;1008.6;;;18.5
79148;BMP280;68562;51.600;6.524;2023-07-31T03:30:00;1008.5;;;18.6
79148;BMP280;68562;51.600;6.524;2023-07-31T03:35:00;1008.5;;;18.6
79148;BMP280;68562;51.600;6.524;2023-07-31T03:40:00;1008.5;;;18.6
79148;BMP280;68562;51.600;6.524;2023-07-31T03:45:00;1008.6;;;18.6
79148;BMP280;68562;51.600;6.524;2023-07-31T03:50:00;1008.5;;;18.6
79148;BMP280;68562;51.600;6.524;2023-07-31T03:55:00;1008.5;;;18.6
79148;BMP280;68562;51.600;6.524;2023-07-31T04:00:00;1008.4;;;18.7
79148;BMP280;68562;51.600;6.524;2023-07-31T04:05:00;1008.4;;;18.8
79148;BMP280;68562;51.600;6.524;2023-07-31T04:10:00;1008.3;;;18.8
79148;BMP280;68562;51.600;6.524;2023-07-31T04:15:00;1008.2;;;18.9
79148;BMP280;68562;51.600;6.524;2023-07-31T04:20:00;1008.2;;;18.9
79148;BMP280;68562;51.600;6.524;2023-07-31T04:25:00;1008.1;;;18.9
79148;BMP280;68562;51.600;6.524;2023-07-31T04:30:00;1008.1;;;19.0
79148;BMP280;68562;51.600;6.524;2023-07-31T04:35:00;1008.2;;;19.1
79148;BMP280;68562;51.600;6.524;2023-07-31T04:40:00;1008.1;;;19.2
79148;BMP280;68562;51.600;6.524;2023-07-31T04:45:00;1008.1;;;19.3
79148;BMP280;68562;51.600;6.524;2023-07-31T04:50:00;1008.1;;;19.4
79148;BMP280;68562;51.600;6.524;2023-07-31T04:55:00;1008.0;;;19.5
79148;BMP280;68562;51.600;6.524;2023-07-31T05:00:00;1008.0;;;19.6
79148;BMP280;68562;51.600;6.524;2023-07-31T05:05:00;1008.0;;;19.6
79148;BMP280;68562;51.600;6.524;2023-07-31T05:10:00;1008.0;;;19.6
79148;BMP280;68562;51.600;6.524;2023-07-31T05:15:00;1007.9;;;19.7
79148;BMP280;68562;51.600;6.524;2023-07-31T05:20:00;1007.8;;;19.6
79148;BMP280;68562;51.600;6.524;2023-07-31T05:25:00;1007.8;;;19.7
79148;BMP280;68562;51.600;6.524;2023-07-31T05:30:00;1007.8;;;19.7
79148;BMP280;68562;51.600;6.524;2023-07-31T05:35:00;1007.7;;;19.8
79148;BMP280;68562;51.600;6.524;2023-07-31T05:40:00;1007.6;;;19.8
79148;BMP280;68562;51.600;6.524;2023-07-31T05:45:00;1007.5;;;19.9
79148;BMP280;68562;51.600;6.524;2023-07-31T05:50:00;1007.5;;;19.8
79148;BMP280;68562;51.600;6.524;2023-07-31T05:55:00;1007.5;;;19.9
79148;BMP280;68562;51.600;6.524;2023-07-31T06:00:00;1007.5;;;19.9
79148;BMP280;68562;51.600;6.524;2023-07-31T06:05:00;1007.4;;;19.8
79148;BMP280;68562;51.600;6.524;2023-07-31T06:10:00;1007.5;;;19.7
79148;BMP280;68562;51.600;6.524;2023-07-31T06:15:01;1007.5;;;19.6
79148;BMP280;68562;51.600;6.524;2023-07-31T06:20:00;1007.4;;;19.6
79148;BMP280;68562;51.600;6.524;2023-07-31T06:25:00;1007.5;;;19.6
79148;BMP280;68562;51.600;6.524;2023-07-31T06:30:00;1007.4;;;19.7
79148;BMP280;68562;51.600;6.524;2023-07-31T06:35:00;1007.5;;;19.8
79148;BMP280;68562;51.600;6.524;2023-07-31T06:40:00;1007.4;;;19.8
79148;BMP280;68562;51.600;6.524;2023-07-31T06:45:00;1007.3;;;19.8
79148;BMP280;68562;51.600;6.524;2023-07-31T06:50:00;1007.1;;;19.7
79148;BMP280;68562;51.600;6.524;2023-07-31T06:55:01;1007.2;;;19.6
79148;BMP280;68562;51.600;6.524;2023-07-31T07:00:00;1007.2;;;19.5
79148;BMP280;68562;51.600;6.524;2023-07-31T07:05:00;1007.1;;;19.5
79148;BMP280;68562;51.600;6.524;2023-07-31T07:10:00;1007.1;;;19.4
79148;BMP280;68562;51.600;6.524;2023-07-31T07:15:00;1007.0;;;19.3
79148;BMP280;68562;51.600;6.524;2023-07-31T07:20:00;1006.9;;;19.4
79148;BMP280;68562;51.600;6.524;2023-07-31T07:25:00;1007.0;;;19.5
79148;BMP280;68562;51.600;6.524;2023-07-31T07:30:00;1006.9;;;19.4
79148;BMP280;68562;51.600;6.524;2023-07-31T07:35:00;1006.9;;;19.4
79148;BMP280;68562;51.600;6.524;2023-07-31T07:40:00;1006.9;;;19.3
79148;BMP280;68562;51.600;6.524;2023-07-31T07:45:00;1006.9;;;19.3
79148;BMP280;68562;51.600;6.524;2023-07-31T07:50:00;1006.9;;;19.1
79148;BMP280;68562;51.600;6.524;2023-07-31T07:55:00;1006.9;;;19.2
79148;BMP280;68562;51.600;6.524;2023-07-31T08:00:00;1006.8;;;19.1
79148;BMP280;68562;51.600;6.524;2023-07-31T08:05:00;1006.8;;;19.1
79148;BMP280;68562;51.600;6.524;2023-07-31T08:10:00;1006.8;;;19.1
79148;BMP280;68562;51.600;6.524;2023-07-31T08:15:00;1006.7;;;19.2
79148;BMP280;68562;51.600;6.524;2023-07-31T08:20:00;1006.6;;;19.3
79148;BMP280;68562;51.600;6.524;2023-07-31T08:25:00;1006.6;;;19.2
79148;BMP280;68562;51.600;6.524;2023-07-31T08:30:00;1006.6;;;19.3
79148;BMP280;68562;51.600;6.524;2023-07-31T08:35:00;1006.6;;;19.2
79148;BMP280;68562;51.600;6.524;2023-07-31T08:40:00;1006.7;;;19.2
79148;BMP280;68562;51.600;6.524;2023-07-31T08:45:01;1006.7;;;19.3
79148;BMP280;68562;51.600;6.524;2023-07-31T08:50:01;1006.7;;;19.3
79148;BMP280;68562;51.600;6.524;2023-07-31T08:55:00;1006.7;;;19.3
79148;BMP280;68562;51.600;6.524;2023-07-31T09:00:00;1006.7;;;19.4
79148;BMP280;68562;51.600;6.524;2023-07-31T09:05:01;1006.7;;;19.5
79148;BMP280;68562;51.600;6.524;2023-07-31T09:10:00;1006.8;;;19.5
79148;BMP280;68562;51.600;6.524;2023-07-31T09:15:00;1006.8;;;19.4
79148;BMP280;68562;51.600;6.524;2023-07-31T09:20:14;1006.7;;;19.5
79148;BMP280;68562;51.600;6.524;2023-07-31T09:25:15;1006.6;;;19.5
79148;BMP280;68562;51.600;6.524;2023-07-31T09:30:00;1006.5;;;19.5
79148;BMP280;68562;51.600;6.524;2023-07-31T09:35:00;1006.5;;;19.5
79148;BMP280;68562;51.600;6.524;2023-07-31T09:40:00;1006.5;;;19.7
79148;BMP280;68562;51.600;6.524;2023-07-31T09:45:07;1006.4;;;19.7
79148;BMP280;68562;51.600;6.524;2023-07-31T09:50:00;1006.5;;;19.7
79148;BMP280;68562;51.600;6.524;2023-07-31T09:55:00;1006.4;;;19.7
79148;BMP280;68562;51.600;6.524;2023-07-31T10:00:00;1006.4;;;19.7
79148;BMP280;68562;51.600;6.524;2023-07-31T10:05:03;1006.4;;;19.7
79148;BMP280;68562;51.600;6.524;2023-07-31T10:10:00;1006.3;;;19.6
79148;BMP280;68562;51.600;6.524;2023-07-31T10:15:00;1006.3;;;19.6
79148;BMP280;68562;51.600;6.524;2023-07-31T10:20:01;1006.4;;;19.6
79148;BMP280;68562;51.600;6.524;2023-07-31T10:25:00;1006.4;;;19.7
79148;BMP280;68562;51.600;6.524;2023-07-31T10:30:00;1006.3;;;19.7
79148;BMP280;68562;51.600;6.524;2023-07-31T10:35:01;1006.2;;;19.8
79148;BMP280;68562;51.600;6.524;2023-07-31T10:40:02;1006.3;;;19.9
79148;BMP280;68562;51.600;6.524;2023-07-31T10:45:02;1006.3;;;20.0
79148;BMP280;68562;51.600;6.524;2023-07-31T10:50:11;1006.3;;;20.1
79148;BMP280;68562;51.600;6.524;2023-07-31T10:55:14;1006.3;;;20.3
79148;BMP280;68562;51.600;6.524;2023-07-31T11:00:19;1006.2;;;20.4
79148;BMP280;68562;51.600;6.524;2023-07-31T11:05:08;1006.2;;;20.4
79148;BMP280;68562;51.600;6.524;2023-07-31T11:10:00;1006.3;;;20.5
79148;BMP280;68562;51.600;6.524;2023-07-31T11:15:00;1006.2;;;20.5
79148;BMP280;68562;51.600;6.524;2023-07-31T11:20:00;1006.3;;;20.7
79148;BMP280;68562;51.600;6.524;2023-07-31T11:25:00;1006.3;;;20.9
79148;BMP280;68562;51.600;6.524;2023-07-31T11:30:00;1006.2;;;21.1
79148;BMP280;68562;51.600;6.524;2023-07-31T11:35:00;1006.2;;;21.2
79148;BMP280;68562;51.600;6.524;2023-07-31T11:40:00;1006.1;;;21.3
79148;BMP280;68562;51.600;6.524;2023-07-31T11:45:02;1006.1;;;21.4
79148;BMP280;68562;51.600;6.524;2023-07-31T11:50:00;1006.1;;;21.5
79148;BMP280;68562;51.600;6.524;2023-07-31T11:55:00;1006.1;;;21.5
79148;BMP280;68562;51.600;6.524;2023-07-31T12:00:00;1006.0;;;21.5
79148;BMP280;68562;51.600;6.524;2023-07-31T12:05:01;1006.0;;;21.6
79148;BMP280;68562;51.600;6.524;2023-07-31T12:10:00;1006.1;;;21.6
79148;BMP280;68562;51.600;6.524;2023-07-31T12:15:00;1005.9;;;21.6
79148;BMP280;68562;51.600;6.524;2023-07-31T12:20:00;1005.9;;;21.6
79148;BMP280;68562;51.600;6.524;2023-07-31T12:25:00;1005.8;;;22.0
79148;BMP280;68562;51.600;6.524;2023-07-31T12:30:00;1005.9;;;22.2
79148;BMP280;68562;51.600;6.524;2023-07-31T12:35:00;1005.9;;;22.4
79148;BMP280;68562;51.600;6.524;2023-07-31T12:40:00;1005.9;;;22.7
79148;BMP280;68562;51.600;6.524;2023-07-31T12:45:00;1005.9;;;22.7
79148;BMP280;68562;51.600;6.524;2023-07-31T12:50:00;1005.9;;;22.7
79148;BMP280;68562;51.600;6.524;2023-07-31T12:55:00;1005.8;;;22.6
79148;BMP280;68562;51.600;6.524;2023-07-31T13:00:00;1005.6;;;22.5
79148;BMP280;68562;51.600;6.524;2023-07-31T13:05:00;1005.5;;;22.4
79148;BMP280;68562;51.600;6.524;2023-07-31T13:10:00;1005.5;;;22.3
79148;BMP280;68562;51.600;6.524;2023-07-31T13:15:00;1005.5;;;22.3
79148;BMP280;68562;51.600;6.524;2023-07-31T13:20:00;1005.5;;;22.1
79148;BMP280;68562;51.600;6.524;2023-07-31T13:25:00;1005.4;;;22.0
79148;BMP280;68562;51.600;6.524;2023-07-31T13:30:00;1005.3;;;21.9
79148;BMP280;68562;51.600;6.524;2023-07-31T13:35:00;1005.2;;;21.9
79148;BMP280;68562;51.600;6.524;2023-07-31T13:40:00;1005.1;;;22.0
79148;BMP280;68562;51.600;6.524;2023-07-31T13:45:00;1005.1;;;22.0
79148;BMP280;68562;51.600;6.524;2023-07-31T13:50:00;1005.3;;;21.9
79148;BMP280;68562;51.600;6.524;2023-07-31T13:55:00;1005.2;;;21.9
79148;BMP280;68562;51.600;6.524;2023-07-31T14:00:00;1005.1;;;22.1
79148;BMP280;68562;51.600;6.524;2023-07-31T14:05:00;1005.0;;;22.3
79148;BMP280;68562;51.600;6.524;2023-07-31T14:10:00;1005.1;;;22.5
79148;BMP280;68562;51.600;6.524;2023-07-31T14:15:00;1005.0;;;22.7
79148;BMP280;68562;51.600;6.524;2023-07-31T14:20:00;1004.8;;;22.7
79148;BMP280;68562;51.600;6.524;2023-07-31T14:25:01;1004.7;;;22.7
79148;BMP280;68562;51.600;6.524;2023-07-31T14:30:00;1004.7;;;22.6
79148;BMP280;68562;51.600;6.524;2023-07-31T14:35:00;1004.8;;;22.7
79148;BMP280;68562;51.600;6.524;2023-07-31T14:40:00;1004.8;;;22.7
79148;BMP280;68562;51.600;6.524;2023-07-31T14:45:00;1004.9;;;22.6
79148;BMP280;68562;51.600;6.524;2023-07-31T14:50:00;1004.9;;;22.5
79148;BMP280;68562;51.600;6.524;2023-07-31T14:55:00;1005.0;;;22.4
79148;BMP280;68562;51.600;6.524;2023-07-31T15:00:00;1005.0;;;22.1
79148;BMP280;68562;51.600;6.524;2023-07-31T15:05:00;1004.9;;;21.9
79148;BMP280;68562;51.600;6.524;2023-07-31T15:10:01;1004.9;;;21.7
79148;BMP280;68562;51.600;6.524;2023-07-31T15:15:00;1004.8;;;21.7
79148;BMP280;68562;51.600;6.524;2023-07-31T15:20:00;1004.8;;;21.6
79148;BMP280;68562;51.600;6.524;2023-07-31T15:25:00;1004.6;;;21.5
79148;BMP280;68562;51.600;6.524;2023-07-31T15:30:00;1004.5;;;21.5
79148;BMP280;68562;51.600;6.524;2023-07-31T15:35:00;1004.4;;;21.3
79148;BMP280;68562;51.600;6.524;2023-07-31T15:40:00;1004.3;;;21.3
79148;BMP280;68562;51.600;6.524;2023-07-31T15:45:00;1004.2;;;21.2
79148;BMP280;68562;51.600;6.524;2023-07-31T15:50:00;1004.2;;;21.3
79148;BMP280;68562;51.600;6.524;2023-07-31T15:55:00;1004.2;;;21.2
79148;BMP280;68562;51.600;6.524;2023-07-31T16:00:00;1004.1;;;20.9
79148;BMP280;68562;51.600;6.524;2023-07-31T16:05:00;1004.1;;;20.8
79148;BMP280;68562;51.600;6.524;2023-07-31T16:10:00;1004.0;;;20.7
79148;BMP280;68562;51.600;6.524;2023-07-31T16:15:00;1004.0;;;20.6
79148;BMP280;68562;51.600;6.524;2023-07-31T16:20:00;1003.9;;;20.7
79148;BMP280;68562;51.600;6.524;2023-07-31T16:25:00;1003.8;;;20.7
79148;BMP280;68562;51.600;6.524;2023-07-31T16:30:00;1003.7;;;20.7
79148;BMP280;68562;51.600;6.524;2023-07-31T16:35:00;1003.6;;;20.6
79148;BMP280;68562;51.600;6.524;2023-07-31T16:40:00;1003.5;;;20.6
79148;BMP280;68562;51.600;6.524;2023-07-31T16:45:00;1003.4;;;20.6
79148;BMP280;68562;51.600;6.524;2023-07-31T16:50:00;1003.2;;;20.6
79148;BMP280;68562;51.600;6.524;2023-07-31T16:55:00;1003.2;;;20.6
79148;BMP280;68562;51.600;6.524;2023-07-31T17:00:00;1003.2;;;20.5
79148;BMP280;68562;51.600;6.524;2023-07-31T17:05:00;1003.1;;;20.5
79148;BMP280;68562;51.600;6.524;2023-07-31T17:10:00;1003.1;;;20.5
79148;BMP280;68562;51.600;6.524;2023-07-31T17:15:00;1003.1;;;20.4
79148;BMP280;68562;51.600;6.524;2023-07-31T17:20:00;1002.9;;;20.3
79148;BMP280;68562;51.600;6.524;2023-07-31T17:25:00;1002.9;;;20.2
79148;BMP280;68562;51.600;6.524;2023-07-31T17:30:00;1002.7;;;20.1
79148;BMP280;68562;51.600;6.524;2023-07-31T17:35:00;1002.6;;;20.0
79148;BMP280;68562;51.600;6.524;2023-07-31T17:40:00;1002.6;;;20.1
79148;BMP280;68562;51.600;6.524;2023-07-31T17:45:00;1002.5;;;20.1
79148;BMP280;68562;51.600;6.524;2023-07-31T17:50:00;1002.6;;;20.1
79148;BMP280;68562;51.600;6.524;2023-07-31T17:55:00;1002.6;;;20.0
79148;BMP280;68562;51.600;6.524;2023-07-31T18:00:00;1002.5;;;19.9
79148;BMP280;68562;51.600;6.524;2023-07-31T18:05:00;1002.4;;;19.9
79148;BMP280;68562;51.600;6.524;2023-07-31T18:10:00;1002.3;;;19.9
79148;BMP280;68562;51.600;6.524;2023-07-31T18:15:00;1002.3;;;19.9
79148;BMP280;68562;51.600;6.524;2023-07-31T18:20:00;1002.2;;;19.8
79148;BMP280;68562;51.600;6.524;2023-07-31T18:25:00;1002.1;;;19.8
79148;BMP280;68562;51.600;6.524;2023-07-31T18:30:00;1002.0;;;19.8
79148;BMP280;68562;51.600;6.524;2023-07-31T18:35:00;1002.0;;;19.8
79148;BMP280;68562;51.600;6.524;2023-07-31T18:40:00;1001.9;;;19.7
79148;BMP280;68562;51.600;6.524;2023-07-31T18:45:00;1001.9;;;19.8
79148;BMP280;68562;51.600;6.524;2023-07-31T18:50:00;1001.7;;;19.8
79148;BMP280;68562;51.600;6.524;2023-07-31T18:55:00;1001.5;;;19.7
79148;BMP280;68562;51.600;6.524;2023-07-31T19:00:00;1001.5;;;19.7
79148;BMP280;68562;51.600;6.524;2023-07-31T19:05:00;1001.3;;;19.6
79148;BMP280;68562;51.600;6.524;2023-07-31T19:10:00;1000.9;;;19.6
79148;BMP280;68562;51.600;6.524;2023-07-31T19:15:00;1001.1;;;19.7
79148;BMP280;68562;51.600;6.524;2023-07-31T19:20:00;1001.1;;;19.7
79148;BMP280;68562;51.600;6.524;2023-07-31T19:25:00;1001.0;;;19.7
79148;BMP280;68562;51.600;6.524;2023-07-31T19:30:00;1001.1;;;19.8
79148;BMP280;68562;51.600;6.524;2023-07-31T19:35:00;1001.2;;;19.7
79148;BMP280;68562;51.600;6.524;2023-07-31T19:40:00;1001.1;;;19.6
79148;BMP280;68562;51.600;6.524;2023-07-31T19:45:00;1001.2;;;19.6
79148;BMP280;68562;51.600;6.524;2023-07-31T19:50:00;1001.2;;;19.6
79148;BMP280;68562;51.600;6.524;2023-07-31T19:55:00;1001.2;;;19.7
79148;BMP280;68562;51.600;6.524;2023-07-31T20:00:00;1001.1;;;19.6
79148;BMP280;68562;51.600;6.524;2023-07-31T20:05:00;1001.3;;;19.6
79148;BMP280;68562;51.600;6.524;2023-07-31T20:10:00;1001.4;;;19.5
79148;BMP280;68562;51.600;6.524;2023-07-31T20:15:01;1001.3;;;19.7
79148;BMP280;68562;51.600;6.524;2023-07-31T20:20:00;1001.2;;;19.6
79148;BMP280;68562;51.600;6.524;2023-07-31T20:25:00;1001.2;;;19.6
79148;BMP280;68562;51.600;6.524;2023-07-31T20:30:00;1001.1;;;19.7
79148;BMP280;68562;51.600;6.524;2023-07-31T20:35:00;1001.1;;;19.7
79148;BMP280;68562;51.600;6.524;2023-07-31T20:40:05;1001.2;;;19.7
79148;BMP280;68562;51.600;6.524;2023-07-31T20:45:00;1001.0;;;19.6
79148;BMP280;68562;51.600;6.524;2023-07-31T20:50:00;1000.7;;;19.5
79148;BMP280;68562;51.600;6.524;2023-07-31T20:55:00;1000.7;;;19.4
79148;BMP280;68562;51.600;6.524;2023-07-31T21:00:00;1000.4;;;19.5
79148;BMP280;68562;51.600;6.524;2023-07-31T21:05:00;1000.4;;;19.5
79148;BMP280;68562;51.600;6.524;2023-07-31T21:10:00;1000.4;;;19.3
79148;BMP280;68562;51.600;6.524;2023-07-31T21:15:00;1000.5;;;19.2
79148;BMP280;68562;51.600;6.524;2023-07-31T21:20:00;1000.4;;;19.1
79148;BMP280;68562;51.600;6.524;2023-07-31T21:25:00;1000.4;;;19.0
79148;BMP280;68562;51.600;6.524;2023-07-31T21:30:00;1000.3;;;19.1
79148;BMP280;68562;51.600;6.524;2023-07-31T21:35:00;1000.2;;;19.1
79148;BMP280;68562;51.600;6.524;2023-07-31T21:40:00;1000.1;;;19.1
79148;BMP280;68562;51.600;6.524;2023-07-31T21:45:00;1000.0;;;19.2
79148;BMP280;68562;51.600;6.524;2023-07-31T21:50:00;999.9;;;19.3
79148;BMP280;68562;51.600;6.524;2023-07-31T21:55:00;999.8;;;19.3
79148;BMP280;68562;51.600;6.524;2023-07-31T22:00:00;999.6;;;19.3
79148;BMP280;68562;51.600;6.524;2023-07-31T22:05:00;999.6;;;19.4
79148;BMP280;68562;51.600;6.524;2023-07-31T22:10:00;999.4;;;19.4
79148;BMP280;68562;51.600;6.524;2023-07-31T22:15:00;999.5;;;19.4
79148;BMP280;68562;51.600;6.524;2023-07-31T22:20:00;999.5;;;19.3
79148;BMP280;68562;51.600;6.524;2023-07-31T22:25:00;999.4;;;19.3
79148;BMP280;68562;51.600;6.524;2023-07-31T22:30:00;999.3;;;19.3
79148;BMP280;68562;51.600;6.524;2023-07-31T22:35:00;999.3;;;19.3
79148;BMP280;68562;51.600;6.524;2023-07-31T22:40:00;999.2;;;19.3
79148;BMP280;68562;51.600;6.524;2023-07-31T22:45:00;999.1;;;19.3
79148;BMP280;68562;51.600;6.524;2023-07-31T22:50:00;999.0;;;19.3
79148;BMP280;68562;51.600;6.524;2023-07-31T22:55:00;998.8;;;19.3
79148;BMP280;68562;51.600;6.524;2023-07-31T23:00:00;998.8;;;19.3
79148;BMP280;68562;51.600;6.524;2023-07-31T23:05:00;998.6;;;19.3
79148;BMP280;68562;51.600;6.524;2023-07-31T23:10:00;998.6;;;19.3
79148;BMP280;68562;51.600;6.524;2023-07-31T23:15:00;998.5;;;19.3
79148;BMP280;68562;51.600;6.524;2023-07-31T23:20:00;998.5;;;19.4
79148;BMP280;68562;51.600;6.524;2023-07-31T23:25:00;998.3;;;19.4
79148;BMP280;68562;51.600;6.524;2023-07-31T23:30:00;998.2;;;19.5
79148;BMP280;68562;51.600;6.524;2023-07-31T23:35:00;998.2;;;19.4
79148;BMP280;68562;51.600;6.524;2023-07-31T23:40:00;998.1;;;19.4
79148;BMP280;68562;51.600;6.524;2023-07-31T23:45:00;998.0;;;19.4
79148;BMP280;68562;51.600;6.524;2023-07-31T23:50:00;998.0;;;19.4
79148;BMP280;68562;51.600;6.524;2023-07-31T23:55:00;997.9;;;19.4
